sensor_id;sensor_type;location;lat;lon;timestamp;P1;P4;P2;P0;N10;N4;N25;N1;N05;TS
58856;SPS30;44629;50.962;6.138;2023-01-30T11:42:47;4.22;4.13;3.70;3.00;24.08;24.05;23.93;23.28;19.58;0.65
58856;SPS30;44629;50.962;6.138;2023-01-30T11:45:23;3.83;3.77;3.45;2.89;23.16;23.14;23.05;22.56;19.13;0.66
58856;SPS30;44629;50.962;6.138;2023-01-30T11:48:00;3.96;3.88;3.48;2.82;22.59;22.57;22.45;21.85;18.37;0.68
58856;SPS30;44629;50.962;6.138;2023-01-30T11:50:43;4.41;4.29;3.72;2.85;22.89;22.86;22.69;21.86;18.11;0.70
58856;SPS30;44629;50.962;6.138;2023-01-30T11:53:22;4.16;4.03;3.41;2.49;20.06;20.03;19.85;18.96;15.49;0.71
58856;SPS30;44629;50.962;6.138;2023-01-30T11:59:57;3.97;3.84;3.23;2.34;18.84;18.81;18.64;17.76;14.48;0.72
58856;SPS30;44629;50.962;6.138;2023-01-30T12:05:01;6.27;6.10;5.26;3.99;32.06;32.01;31.77;30.55;25.24;0.70
58856;SPS30;44629;50.962;6.138;2023-01-30T12:10:49;4.20;4.08;3.48;2.59;20.79;20.76;20.58;19.72;16.20;0.71
58856;SPS30;44629;50.962;6.138;2023-01-30T12:16:16;4.87;4.71;3.89;2.73;22.03;21.99;21.76;20.61;16.63;0.76
58856;SPS30;44629;50.962;6.138;2023-01-30T12:19:17;5.13;4.99;4.29;3.24;26.05;26.01;25.81;24.80;20.45;0.69
58856;SPS30;44629;50.962;6.138;2023-01-30T12:22:25;4.35;4.24;3.66;2.79;22.40;22.37;22.20;21.37;17.67;0.68
58856;SPS30;44629;50.962;6.138;2023-01-30T12:25:24;5.00;4.84;4.03;2.86;23.05;23.01;22.78;21.62;17.51;0.72
58856;SPS30;44629;50.962;6.138;2023-01-30T12:28:02;4.80;4.63;3.79;2.60;20.98;20.94;20.70;19.52;15.64;0.76
58856;SPS30;44629;50.962;6.138;2023-01-30T12:30:57;4.87;4.69;3.80;2.56;20.66;20.62;20.37;19.12;15.21;0.78
58856;SPS30;44629;50.962;6.138;2023-01-30T12:33:34;4.42;4.25;3.40;2.21;17.87;17.83;17.59;16.40;12.89;0.81
58856;SPS30;44629;50.962;6.138;2023-01-30T12:36:19;5.05;4.85;3.88;2.52;20.38;20.34;20.06;18.69;14.70;0.80
58856;SPS30;44629;50.962;6.138;2023-01-30T12:56:31;5.36;5.14;4.04;2.54;20.51;20.46;20.15;18.61;14.42;0.82
58856;SPS30;44629;50.962;6.138;2023-01-30T13:05:42;5.01;4.81;3.82;2.46;19.87;19.83;19.55;18.17;14.21;0.80
58856;SPS30;44629;50.962;6.138;2023-01-30T13:21:54;5.67;5.43;4.24;2.63;21.24;21.19;20.86;19.20;14.80;0.83
58856;SPS30;44629;50.962;6.138;2023-01-30T13:25:41;6.29;6.04;4.78;3.05;24.62;24.56;24.20;22.44;17.50;0.81
58856;SPS30;44629;50.962;6.138;2023-01-30T13:27:56;5.71;5.49;4.40;2.89;23.31;23.26;22.95;21.43;16.89;0.79
58856;SPS30;44629;50.962;6.138;2023-01-30T13:30:30;5.21;5.03;4.11;2.82;22.71;22.66;22.40;21.11;16.90;0.76
58856;SPS30;44629;50.962;6.138;2023-01-30T13:33:00;5.30;5.11;4.18;2.86;23.06;23.02;22.75;21.43;17.15;0.74
58856;SPS30;44629;50.962;6.138;2023-01-30T13:35:50;5.64;5.44;4.43;3.00;24.23;24.18;23.89;22.47;17.92;0.75
58856;SPS30;44629;50.962;6.138;2023-01-30T13:38:38;5.15;4.98;4.10;2.85;22.97;22.92;22.67;21.43;17.24;0.75
58856;SPS30;44629;50.962;6.138;2023-01-30T13:41:17;5.51;5.29;4.20;2.70;21.82;21.77;21.46;19.94;15.60;0.81
58856;SPS30;44629;50.962;6.138;2023-01-30T13:43:45;5.67;5.43;4.25;2.63;21.26;21.20;20.87;19.21;14.80;0.82
58856;SPS30;44629;50.962;6.138;2023-01-30T13:46:21;6.09;5.83;4.52;2.75;22.26;22.20;21.83;20.01;15.31;0.83
58856;SPS30;44629;50.962;6.138;2023-01-30T13:48:59;6.05;5.77;4.41;2.58;20.96;20.90;20.52;18.63;14.02;0.86
58856;SPS30;44629;50.962;6.138;2023-01-30T13:52:02;5.74;5.50;4.26;2.59;20.94;20.89;20.54;18.82;14.39;0.83
58856;SPS30;44629;50.962;6.138;2023-01-30T13:58:21;6.09;5.83;4.54;2.80;22.63;22.57;22.21;20.42;15.70;0.82
58856;SPS30;44629;50.962;6.138;2023-01-30T14:00:59;5.98;5.75;4.63;3.07;24.78;24.73;24.41;22.84;18.07;0.76
58856;SPS30;44629;50.962;6.138;2023-01-30T14:03:26;5.05;4.88;4.05;2.85;22.97;22.93;22.70;21.51;17.38;0.73
58856;SPS30;44629;50.962;6.138;2023-01-30T14:08:26;4.84;4.67;3.83;2.63;21.20;21.16;20.92;19.73;15.81;0.75
58856;SPS30;44629;50.962;6.138;2023-01-30T14:10:57;4.83;4.67;3.87;2.73;21.96;21.92;21.69;20.56;16.60;0.74
58856;SPS30;44629;50.962;6.138;2023-01-30T14:13:24;4.84;4.67;3.83;2.64;21.26;21.22;20.98;19.80;15.88;0.74
58856;SPS30;44629;50.962;6.138;2023-01-30T14:15:55;5.59;5.38;4.30;2.80;22.64;22.59;22.28;20.77;16.34;0.77
58856;SPS30;44629;50.962;6.138;2023-01-30T14:18:34;5.57;5.36;4.26;2.76;22.29;22.24;21.94;20.41;16.01;0.78
58856;SPS30;44629;50.962;6.138;2023-01-30T14:21:15;6.14;5.91;4.73;3.10;25.03;24.98;24.64;23.00;18.12;0.78
58856;SPS30;44629;50.962;6.138;2023-01-30T14:23:54;5.60;5.38;4.29;2.79;22.51;22.46;22.15;20.63;16.20;0.78
58856;SPS30;44629;50.962;6.138;2023-01-30T14:29:23;4.95;4.78;3.94;2.74;22.08;22.04;21.80;20.61;16.58;0.73
58856;SPS30;44629;50.962;6.138;2023-01-30T14:40:25;5.34;5.17;4.33;3.12;25.10;25.06;24.82;23.62;19.21;0.72
58856;SPS30;44629;50.962;6.138;2023-01-30T14:45:47;4.72;4.57;3.82;2.73;21.98;21.94;21.72;20.65;16.76;0.71
58856;SPS30;44629;50.962;6.138;2023-01-30T14:59:57;4.33;4.22;3.68;2.84;22.84;22.81;22.65;21.86;18.16;0.68
58856;SPS30;44629;50.962;6.138;2023-01-30T15:02:27;4.42;4.30;3.70;2.80;22.48;22.45;22.27;21.41;17.67;0.68
58856;SPS30;44629;50.962;6.138;2023-01-30T15:05:01;5.65;5.47;4.54;3.21;25.86;25.81;25.55;24.23;19.60;0.72
58856;SPS30;44629;50.962;6.138;2023-01-30T15:10:13;4.58;4.43;3.65;2.55;20.53;20.49;20.27;19.17;15.44;0.70
58856;SPS30;44629;50.962;6.138;2023-01-30T15:13:09;5.01;4.84;3.96;2.72;21.95;21.91;21.66;20.43;16.37;0.70
58856;SPS30;44629;50.962;6.138;2023-01-30T15:33:28;4.37;4.28;3.82;3.08;24.67;24.65;24.51;23.83;20.00;0.65
58856;SPS30;44629;50.962;6.138;2023-01-30T15:35:53;4.95;4.82;4.16;3.17;25.44;25.40;25.21;24.26;20.05;0.70
58856;SPS30;44629;50.962;6.138;2023-01-30T15:40:58;5.70;5.50;4.49;3.06;24.65;24.61;24.32;22.89;18.28;0.75
58856;SPS30;44629;50.962;6.138;2023-01-30T15:52:14;5.46;5.23;4.11;2.58;20.87;20.82;20.51;18.94;14.68;0.81
58856;SPS30;44629;50.962;6.138;2023-01-30T15:54:48;6.39;6.12;4.76;2.92;23.66;23.60;23.22;21.33;16.38;0.84
58856;SPS30;44629;50.962;6.138;2023-01-30T15:57:22;6.24;5.97;4.64;2.83;22.89;22.83;22.46;20.60;15.78;0.85
58856;SPS30;44629;50.962;6.138;2023-01-30T15:59:56;5.64;5.41;4.26;2.68;21.64;21.59;21.27;19.66;15.24;0.82
58856;SPS30;44629;50.962;6.138;2023-01-30T16:02:26;5.43;5.22;4.17;2.71;21.90;21.85;21.55;20.08;15.78;0.80
58856;SPS30;44629;50.962;6.138;2023-01-30T16:05:17;5.66;5.44;4.38;2.89;23.32;23.27;22.97;21.47;16.96;0.80
58856;SPS30;44629;50.962;6.138;2023-01-30T16:07:49;5.78;5.55;4.41;2.84;22.97;22.92;22.59;21.00;16.44;0.81
58856;SPS30;44629;50.962;6.138;2023-01-30T16:10:28;5.20;4.99;3.94;2.50;20.21;20.16;19.86;18.40;14.32;0.81
58856;SPS30;44629;50.962;6.138;2023-01-30T16:12:55;5.09;4.88;3.85;2.44;19.71;19.67;19.37;17.94;13.95;0.80
58856;SPS30;44629;50.962;6.138;2023-01-30T16:20:49;5.46;5.25;4.20;2.75;22.17;22.12;21.83;20.36;16.03;0.79
58856;SPS30;44629;50.962;6.138;2023-01-30T16:23:20;5.52;5.30;4.21;2.69;21.78;21.73;21.42;19.88;15.54;0.81
58856;SPS30;44629;50.962;6.138;2023-01-30T16:25:56;5.87;5.64;4.52;2.96;23.93;23.87;23.56;21.98;17.32;0.78
58856;SPS30;44629;50.962;6.138;2023-01-30T16:28:24;5.51;5.30;4.27;2.84;22.92;22.87;22.58;21.13;16.73;0.77
58856;SPS30;44629;50.962;6.138;2023-01-30T16:31:00;5.40;5.19;4.14;2.69;21.71;21.66;21.37;19.89;15.62;0.77
58856;SPS30;44629;50.962;6.138;2023-01-30T16:33:32;6.49;6.23;4.92;3.13;25.29;25.23;24.86;23.03;17.94;0.78
58856;SPS30;44629;50.962;6.138;2023-01-30T16:36:02;6.48;6.22;4.91;3.10;25.10;25.04;24.67;22.83;17.75;0.78
58856;SPS30;44629;50.962;6.138;2023-01-30T16:38:44;6.53;6.27;4.99;3.21;25.92;25.86;25.49;23.69;18.54;0.77
58856;SPS30;44629;50.962;6.138;2023-01-30T16:52:01;5.01;4.83;3.93;2.67;21.51;21.47;21.21;19.94;15.91;0.75
58856;SPS30;44629;50.962;6.138;2023-01-30T16:54:33;6.18;5.94;4.76;3.12;25.19;25.14;24.81;23.15;18.24;0.77
58856;SPS30;44629;50.962;6.138;2023-01-30T16:57:01;6.65;6.37;4.97;3.06;24.75;24.69;24.29;22.34;17.18;0.81
58856;SPS30;44629;50.962;6.138;2023-01-30T16:59:32;6.24;5.99;4.70;2.95;23.83;23.77;23.40;21.61;16.74;0.80
58856;SPS30;44629;50.962;6.138;2023-01-30T17:02:00;6.90;6.62;5.21;3.28;26.50;26.44;26.04;24.08;18.68;0.82
58856;SPS30;44629;50.962;6.138;2023-01-30T17:04:30;6.11;5.86;4.57;2.81;22.77;22.71;22.35;20.56;15.81;0.82
58856;SPS30;44629;50.962;6.138;2023-01-30T17:07:03;7.40;7.07;5.45;3.26;26.38;26.30;25.85;23.60;17.92;0.84
58856;SPS30;44629;50.962;6.138;2023-01-30T17:09:33;7.28;6.97;5.40;3.28;26.55;26.48;26.04;23.87;18.24;0.84
58856;SPS30;44629;50.962;6.138;2023-01-30T17:17:38;6.78;6.51;5.18;3.33;26.93;26.86;26.49;24.62;19.27;0.79
58856;SPS30;44629;50.962;6.138;2023-01-30T17:20:05;6.72;6.45;5.13;3.30;26.66;26.60;26.22;24.37;19.07;0.80
58856;SPS30;44629;50.962;6.138;2023-01-30T17:22:32;10.89;10.56;8.88;6.45;51.87;51.79;51.31;48.92;39.88;0.70
58856;SPS30;44629;50.962;6.138;2023-01-30T17:25:03;5.74;5.59;4.86;3.73;29.96;29.92;29.71;28.64;23.74;0.67
58856;SPS30;44629;50.962;6.138;2023-01-30T17:27:38;5.09;4.94;4.16;3.03;24.36;24.32;24.10;22.99;18.76;0.71
58856;SPS30;44629;50.962;6.138;2023-01-30T17:30:12;6.59;6.37;5.28;3.72;29.93;29.88;29.57;28.02;22.64;0.72
58856;SPS30;44629;50.962;6.138;2023-01-30T17:32:39;5.79;5.60;4.64;3.27;26.34;26.29;26.02;24.66;19.92;0.73
58856;SPS30;44629;50.962;6.138;2023-01-30T17:35:05;5.10;4.93;4.08;2.86;23.07;23.03;22.79;21.58;17.41;0.74
58856;SPS30;44629;50.962;6.138;2023-01-30T17:37:31;5.40;5.22;4.28;2.96;23.83;23.79;23.52;22.20;17.82;0.73
58856;SPS30;44629;50.962;6.138;2023-01-30T17:39:57;5.72;5.51;4.46;2.98;24.08;24.03;23.73;22.25;17.66;0.77
58856;SPS30;44629;50.962;6.138;2023-01-30T17:42:24;6.14;5.92;4.82;3.28;26.45;26.40;26.09;24.54;19.60;0.77
58856;SPS30;44629;50.962;6.138;2023-01-30T17:44:49;5.59;5.39;4.36;2.91;23.50;23.45;23.16;21.71;17.23;0.78
58856;SPS30;44629;50.962;6.138;2023-01-30T17:47:15;5.69;5.47;4.39;2.88;23.26;23.21;22.90;21.38;16.86;0.77
58856;SPS30;44629;50.962;6.138;2023-01-30T17:49:41;5.69;5.47;4.37;2.84;22.92;22.87;22.56;21.01;16.50;0.79
58856;SPS30;44629;50.962;6.138;2023-01-30T17:52:07;6.40;6.15;4.86;3.09;24.95;24.89;24.52;22.72;17.70;0.80
58856;SPS30;44629;50.962;6.138;2023-01-30T17:54:35;5.99;5.76;4.58;2.95;23.85;23.79;23.46;21.81;17.08;0.79
58856;SPS30;44629;50.962;6.138;2023-01-30T17:57:02;6.96;6.69;5.34;3.47;28.05;27.99;27.61;25.72;20.20;0.79
58856;SPS30;44629;50.962;6.138;2023-01-30T17:59:30;6.77;6.52;5.23;3.44;27.78;27.72;27.35;25.55;20.16;0.78
58856;SPS30;44629;50.962;6.138;2023-01-30T18:01:56;6.99;6.72;5.39;3.53;28.54;28.48;28.10;26.23;20.68;0.78
58856;SPS30;44629;50.962;6.138;2023-01-30T18:04:23;7.80;7.53;6.17;4.25;34.27;34.21;33.82;31.90;25.58;0.75
58856;SPS30;44629;50.962;6.138;2023-01-30T18:06:51;7.15;6.92;5.82;4.21;33.89;33.84;33.52;31.94;26.02;0.73
58856;SPS30;44629;50.962;6.138;2023-01-30T18:09:23;5.85;5.70;4.93;3.76;30.17;30.13;29.91;28.79;23.81;0.70
58856;SPS30;44629;50.962;6.138;2023-01-30T18:11:49;5.36;5.21;4.48;3.38;27.20;27.17;26.95;25.90;21.37;0.72
58856;SPS30;44629;50.962;6.138;2023-01-30T18:14:15;5.61;5.44;4.60;3.36;27.05;27.01;26.76;25.56;20.88;0.75
58856;SPS30;44629;50.962;6.138;2023-01-30T18:16:42;6.02;5.81;4.80;3.36;27.08;27.03;26.74;25.31;20.40;0.78
58856;SPS30;44629;50.962;6.138;2023-01-30T18:19:11;6.19;5.96;4.82;3.22;26.00;25.94;25.62;24.01;19.06;0.81
58856;SPS30;44629;50.962;6.138;2023-01-30T18:21:40;6.04;5.80;4.59;2.93;23.64;23.59;23.25;21.56;16.81;0.82
58856;SPS30;44629;50.962;6.138;2023-01-30T18:24:09;7.13;6.84;5.39;3.41;27.54;27.48;27.07;25.05;19.46;0.80
58856;SPS30;44629;50.962;6.138;2023-01-30T18:26:36;7.37;7.05;5.48;3.34;27.06;26.99;26.54;24.36;18.66;0.81
58856;SPS30;44629;50.962;6.138;2023-01-30T18:29:02;7.05;6.76;5.28;3.27;26.45;26.38;25.97;23.91;18.43;0.79
58856;SPS30;44629;50.962;6.138;2023-01-30T18:31:28;6.13;5.90;4.77;3.19;25.75;25.70;25.37;23.79;18.88;0.75
58856;SPS30;44629;50.962;6.138;2023-01-30T18:33:55;5.99;5.78;4.78;3.34;26.93;26.88;26.60;25.17;20.29;0.73
58856;SPS30;44629;50.962;6.138;2023-01-30T18:36:21;5.91;5.71;4.73;3.33;26.79;26.75;26.47;25.07;20.24;0.73
58856;SPS30;44629;50.962;6.138;2023-01-30T18:38:47;6.21;6.00;4.95;3.45;27.78;27.73;27.43;25.94;20.88;0.76
58856;SPS30;44629;50.962;6.138;2023-01-30T18:41:14;6.02;5.83;4.86;3.46;27.90;27.85;27.57;26.20;21.24;0.74
58856;SPS30;44629;50.962;6.138;2023-01-30T18:43:44;5.82;5.64;4.75;3.45;27.80;27.76;27.50;26.23;21.40;0.73
58856;SPS30;44629;50.962;6.138;2023-01-30T18:46:15;6.35;6.16;5.19;3.77;30.32;30.27;30.00;28.61;23.33;0.72
58856;SPS30;44629;50.962;6.138;2023-01-30T18:48:43;6.00;5.81;4.86;3.49;28.10;28.05;27.78;26.43;21.47;0.73
58856;SPS30;44629;50.962;6.138;2023-01-30T18:51:17;6.49;6.29;5.28;3.81;30.65;30.60;30.32;28.88;23.51;0.74
58856;SPS30;44629;50.962;6.138;2023-01-30T18:53:51;7.94;7.73;6.68;5.10;40.95;40.89;40.59;39.07;32.33;0.70
58856;SPS30;44629;50.962;6.138;2023-01-30T18:56:22;6.24;6.11;5.45;4.39;35.21;35.17;34.98;34.00;28.54;0.66
58856;SPS30;44629;50.962;6.138;2023-01-30T18:58:55;5.97;5.83;5.12;4.02;32.23;32.20;31.99;30.95;25.80;0.67
58856;SPS30;44629;50.962;6.138;2023-01-30T19:01:27;5.75;5.59;4.79;3.59;28.89;28.85;28.62;27.46;22.61;0.72
58856;SPS30;44629;50.962;6.138;2023-01-30T19:03:56;6.78;6.56;5.44;3.84;30.97;30.91;30.59;29.01;23.45;0.76
58856;SPS30;44629;50.962;6.138;2023-01-30T19:06:24;6.84;6.60;5.40;3.71;29.88;29.82;29.48;27.79;22.25;0.76
58856;SPS30;44629;50.962;6.138;2023-01-30T19:08:52;6.29;6.07;4.96;3.39;27.37;27.32;27.00;25.44;20.35;0.75
58856;SPS30;44629;50.962;6.138;2023-01-30T19:11:19;6.75;6.51;5.29;3.58;28.89;28.83;28.48;26.77;21.33;0.77
58856;SPS30;44629;50.962;6.138;2023-01-30T19:14:04;6.70;6.45;5.19;3.43;27.69;27.64;27.28;25.51;20.16;0.81
58856;SPS30;44629;50.962;6.138;2023-01-30T19:16:33;7.38;7.11;5.75;3.84;31.02;30.96;30.57;28.66;22.75;0.79
58856;SPS30;44629;50.962;6.138;2023-01-30T19:19:00;6.60;6.35;5.12;3.40;27.44;27.38;27.03;25.30;20.04;0.77
58856;SPS30;44629;50.962;6.138;2023-01-30T19:21:26;6.91;6.67;5.42;3.68;29.68;29.62;29.27;27.52;21.95;0.75
58856;SPS30;44629;50.962;6.138;2023-01-30T19:23:52;7.00;6.75;5.51;3.77;30.36;30.31;29.95;28.21;22.56;0.74
58856;SPS30;44629;50.962;6.138;2023-01-30T19:26:19;6.87;6.63;5.41;3.70;29.86;29.80;29.46;27.75;22.20;0.75
58856;SPS30;44629;50.962;6.138;2023-01-30T19:28:46;6.96;6.72;5.53;3.85;31.01;30.95;30.61;28.94;23.28;0.75
58856;SPS30;44629;50.962;6.138;2023-01-30T19:31:13;6.63;6.43;5.40;3.90;31.42;31.37;31.07;29.61;24.12;0.72
58856;SPS30;44629;50.962;6.138;2023-01-30T19:33:42;6.11;5.92;4.97;3.59;28.93;28.89;28.61;27.26;22.20;0.73
58856;SPS30;44629;50.962;6.138;2023-01-30T19:36:11;6.88;6.66;5.56;3.98;32.02;31.96;31.65;30.08;24.41;0.74
58856;SPS30;44629;50.962;6.138;2023-01-30T19:38:41;6.70;6.49;5.40;3.83;30.85;30.80;30.48;28.94;23.43;0.74
58856;SPS30;44629;50.962;6.138;2023-01-30T19:41:09;6.12;5.92;4.91;3.46;27.86;27.81;27.52;26.09;21.08;0.75
58856;SPS30;44629;50.962;6.138;2023-01-30T19:43:44;6.69;6.46;5.28;3.62;29.19;29.13;28.80;27.14;21.72;0.78
58856;SPS30;44629;50.962;6.138;2023-01-30T19:46:10;7.04;6.79;5.53;3.76;30.34;30.28;29.92;28.15;22.47;0.79
58856;SPS30;44629;50.962;6.138;2023-01-30T19:48:36;6.98;6.74;5.53;3.81;30.73;30.67;30.33;28.62;22.95;0.78
58856;SPS30;44629;50.962;6.138;2023-01-30T19:53:41;6.06;5.88;4.98;3.66;29.48;29.43;29.17;27.89;22.83;0.73
58856;SPS30;44629;50.962;6.138;2023-01-30T19:56:09;7.40;7.16;5.95;4.21;33.92;33.86;33.51;31.79;25.72;0.76
58856;SPS30;44629;50.962;6.138;2023-01-30T19:58:37;7.13;6.91;5.81;4.21;33.88;33.82;33.51;31.94;26.02;0.74
58856;SPS30;44629;50.962;6.138;2023-01-30T20:03:32;6.66;6.46;5.45;3.98;32.03;31.98;31.69;30.25;24.72;0.76
58856;SPS30;44629;50.962;6.138;2023-01-30T20:06:11;7.03;6.81;5.73;4.16;33.49;33.44;33.13;31.59;25.76;0.74
58856;SPS30;44629;50.962;6.138;2023-01-30T20:08:47;7.11;6.86;5.64;3.90;31.46;31.40;31.05;29.33;23.55;0.76
58856;SPS30;44629;50.962;6.138;2023-01-30T20:11:17;6.03;5.84;4.94;3.62;29.08;29.04;28.78;27.49;22.47;0.72
58856;SPS30;44629;50.962;6.138;2023-01-30T20:13:46;6.44;6.25;5.26;3.83;30.80;30.76;30.47;29.07;23.72;0.74
58856;SPS30;44629;50.962;6.138;2023-01-30T20:16:13;6.48;6.27;5.22;3.71;29.87;29.82;29.52;28.03;22.70;0.75
58856;SPS30;44629;50.962;6.138;2023-01-30T20:18:45;7.11;6.84;5.51;3.66;29.54;29.48;29.10;27.24;21.56;0.77
58856;SPS30;44629;50.962;6.138;2023-01-30T20:21:14;7.68;7.40;5.98;4.00;32.25;32.18;31.78;29.78;23.63;0.77
58856;SPS30;44629;50.962;6.138;2023-01-30T20:23:42;7.50;7.21;5.77;3.77;30.48;30.41;30.01;27.99;22.03;0.79
58856;SPS30;44629;50.962;6.138;2023-01-30T20:26:10;7.74;7.44;5.95;3.88;31.35;31.28;30.85;28.76;22.63;0.80
58856;SPS30;44629;50.962;6.138;2023-01-30T20:28:47;7.16;6.90;5.56;3.70;29.85;29.79;29.41;27.54;21.81;0.79
58856;SPS30;44629;50.962;6.138;2023-01-30T20:31:15;7.18;6.92;5.63;3.82;30.78;30.72;30.36;28.54;22.76;0.78
58856;SPS30;44629;50.962;6.138;2023-01-30T20:33:43;6.72;6.48;5.27;3.57;28.81;28.75;28.41;26.71;21.30;0.77
58856;SPS30;44629;50.962;6.138;2023-01-30T20:36:10;6.75;6.50;5.26;3.53;28.48;28.42;28.07;26.33;20.92;0.79
58856;SPS30;44629;50.962;6.138;2023-01-30T20:38:39;6.40;6.16;4.95;3.28;26.45;26.39;26.05;24.36;19.26;0.80
58856;SPS30;44629;50.962;6.138;2023-01-30T20:41:09;7.05;6.79;5.46;3.62;29.20;29.14;28.77;26.91;21.28;0.78
58856;SPS30;44629;50.962;6.138;2023-01-30T20:43:42;7.14;6.87;5.51;3.63;29.34;29.28;28.89;27.00;21.31;0.80
58856;SPS30;44629;50.962;6.138;2023-01-30T20:46:11;7.62;7.32;5.80;3.71;30.00;29.93;29.50;27.38;21.39;0.82
58856;SPS30;44629;50.962;6.138;2023-01-30T20:48:51;7.11;6.82;5.40;3.44;27.81;27.75;27.34;25.36;19.77;0.83
58856;SPS30;44629;50.962;6.138;2023-01-30T20:51:21;7.68;7.37;5.85;3.76;30.36;30.29;29.86;27.73;21.69;0.82
58856;SPS30;44629;50.962;6.138;2023-01-30T20:53:54;6.93;6.66;5.28;3.39;27.39;27.33;26.94;25.02;19.56;0.81
58856;SPS30;44629;50.962;6.138;2023-01-30T20:56:23;7.37;7.10;5.74;3.84;31.00;30.94;30.55;28.64;22.74;0.76
58856;SPS30;44629;50.962;6.138;2023-01-30T20:58:54;7.34;7.08;5.78;3.94;31.74;31.68;31.31;29.47;23.54;0.74
58856;SPS30;44629;50.962;6.138;2023-01-30T21:01:21;6.90;6.67;5.47;3.78;30.50;30.44;30.10;28.42;22.81;0.74
58856;SPS30;44629;50.962;6.138;2023-01-30T21:03:48;6.86;6.61;5.35;3.58;28.88;28.82;28.46;26.68;21.19;0.77
58856;SPS30;44629;50.962;6.138;2023-01-30T21:06:17;6.84;6.59;5.33;3.57;28.77;28.71;28.36;26.58;21.11;0.76
58856;SPS30;44629;50.962;6.138;2023-01-30T21:08:48;6.47;6.23;5.01;3.32;26.81;26.76;26.41;24.71;19.55;0.79
58856;SPS30;44629;50.962;6.138;2023-01-30T21:11:15;8.27;7.95;6.34;4.11;33.18;33.11;32.65;30.40;23.85;0.79
58856;SPS30;44629;50.962;6.138;2023-01-30T21:13:43;6.95;6.69;5.38;3.55;28.64;28.58;28.21;26.37;20.83;0.79
58856;SPS30;44629;50.962;6.138;2023-01-30T21:16:12;7.14;6.86;5.48;3.57;28.82;28.76;28.36;26.43;20.77;0.79
58856;SPS30;44629;50.962;6.138;2023-01-30T21:18:47;6.55;6.30;5.06;3.33;26.91;26.85;26.50;24.75;19.54;0.78
58856;SPS30;44629;50.962;6.138;2023-01-30T21:21:23;5.97;5.77;4.75;3.30;26.63;26.58;26.29;24.85;19.99;0.75
58856;SPS30;44629;50.962;6.138;2023-01-30T21:23:51;6.47;6.24;5.07;3.42;27.62;27.57;27.24;25.59;20.38;0.77
58856;SPS30;44629;50.962;6.138;2023-01-30T21:26:22;6.01;5.78;4.66;3.10;25.02;24.97;24.65;23.08;18.28;0.78
58856;SPS30;44629;50.962;6.138;2023-01-30T21:28:50;6.43;6.19;4.99;3.31;26.75;26.69;26.35;24.66;19.53;0.78
58856;SPS30;44629;50.962;6.138;2023-01-30T21:31:17;6.86;6.61;5.35;3.59;28.95;28.89;28.53;26.76;21.27;0.77
58856;SPS30;44629;50.962;6.138;2023-01-30T21:33:47;5.97;5.77;4.72;3.24;26.08;26.03;25.74;24.26;19.42;0.77
58856;SPS30;44629;50.962;6.138;2023-01-30T21:36:13;5.86;5.64;4.59;3.10;25.02;24.97;24.67;23.18;18.47;0.77
58856;SPS30;44629;50.962;6.138;2023-01-30T21:38:41;6.88;6.62;5.34;3.56;28.72;28.66;28.30;26.50;21.00;0.78
58856;SPS30;44629;50.962;6.138;2023-01-30T21:41:34;6.55;6.32;5.17;3.54;28.54;28.49;28.16;26.53;21.23;0.75
58856;SPS30;44629;50.962;6.138;2023-01-30T21:44:15;6.41;6.19;5.04;3.43;27.67;27.61;27.29;25.68;20.50;0.77
58856;SPS30;44629;50.962;6.138;2023-01-30T21:46:46;6.81;6.56;5.33;3.60;29.07;29.01;28.66;26.93;21.46;0.78
58856;SPS30;44629;50.962;6.138;2023-01-30T21:49:13;7.06;6.80;5.51;3.69;29.78;29.72;29.35;27.53;21.87;0.79
58856;SPS30;44629;50.962;6.138;2023-01-30T21:51:41;7.18;6.93;5.69;3.93;31.65;31.59;31.24;29.48;23.66;0.77
58856;SPS30;44629;50.962;6.138;2023-01-30T21:54:10;7.12;6.88;5.65;3.91;31.48;31.42;31.07;29.34;23.55;0.75
58856;SPS30;44629;50.962;6.138;2023-01-30T21:56:36;8.66;8.37;6.96;4.92;39.62;39.55;39.14;37.13;30.03;0.75
58856;SPS30;44629;50.962;6.138;2023-01-30T21:59:02;8.76;8.47;7.02;4.95;39.89;39.82;39.41;37.35;30.18;0.76
58856;SPS30;44629;50.962;6.138;2023-01-30T22:01:30;8.79;8.53;7.25;5.35;43.06;43.00;42.63;40.79;33.43;0.74
58856;SPS30;44629;50.962;6.138;2023-01-30T22:03:58;6.70;6.54;5.72;4.45;35.71;35.67;35.43;34.23;28.47;0.70
58856;SPS30;44629;50.962;6.138;2023-01-30T22:06:23;7.39;7.21;6.35;5.00;40.10;40.06;39.81;38.54;32.15;0.69
58856;SPS30;44629;50.962;6.138;2023-01-30T22:08:52;8.72;8.49;7.31;5.54;44.53;44.47;44.13;42.43;35.04;0.73
58856;SPS30;44629;50.962;6.138;2023-01-30T22:11:19;7.71;7.50;6.47;4.91;39.43;39.38;39.08;37.58;31.05;0.71
58856;SPS30;44629;50.962;6.138;2023-01-30T22:13:45;6.05;5.92;5.25;4.17;33.49;33.46;33.26;32.26;27.00;0.67
58856;SPS30;44629;50.962;6.138;2023-01-30T22:16:12;6.01;5.87;5.17;4.07;32.66;32.62;32.42;31.38;26.19;0.68
58856;SPS30;44629;50.962;6.138;2023-01-30T22:18:51;6.43;6.25;5.35;4.01;32.22;32.17;31.91;30.61;25.20;0.72
58856;SPS30;44629;50.962;6.138;2023-01-30T22:21:24;6.23;6.08;5.32;4.14;33.21;33.17;32.94;31.83;26.47;0.70
58856;SPS30;44629;50.962;6.138;2023-01-30T22:23:55;5.69;5.57;4.98;4.02;32.26;32.23;32.05;31.17;26.18;0.67
58856;SPS30;44629;50.962;6.138;2023-01-30T22:26:21;5.30;5.18;4.61;3.70;29.65;29.62;29.45;28.60;23.98;0.67
58856;SPS30;44629;50.962;6.138;2023-01-30T22:28:56;5.98;5.87;5.28;4.32;34.63;34.60;34.42;33.55;28.27;0.65
58856;SPS30;44629;50.962;6.138;2023-01-30T22:31:24;7.17;7.06;6.52;5.53;44.32;44.29;44.12;43.27;36.80;0.62
58856;SPS30;44629;50.962;6.138;2023-01-30T22:33:54;6.58;6.52;6.22;5.53;44.26;44.24;44.14;43.62;37.49;0.61
58856;SPS30;44629;50.962;6.138;2023-01-30T22:36:24;6.17;6.11;5.79;5.11;40.89;40.86;40.76;40.23;34.52;0.62
58856;SPS30;44629;50.962;6.138;2023-01-30T22:38:53;5.92;5.84;5.40;4.60;36.85;36.83;36.69;36.01;30.65;0.64
58856;SPS30;44629;50.962;6.138;2023-01-30T22:41:22;5.96;5.83;5.19;4.16;33.38;33.35;33.16;32.21;27.00;0.67
58856;SPS30;44629;50.962;6.138;2023-01-30T22:43:53;7.29;7.10;6.18;4.76;38.27;38.22;37.95;36.61;30.38;0.70
58856;SPS30;44629;50.962;6.138;2023-01-30T22:46:21;7.09;6.91;6.01;4.64;37.26;37.21;36.95;35.64;29.58;0.69
58856;SPS30;44629;50.962;6.138;2023-01-30T22:48:51;6.30;6.14;5.36;4.15;33.34;33.30;33.07;31.93;26.53;0.67
58856;SPS30;44629;50.962;6.138;2023-01-30T22:51:22;6.43;6.28;5.56;4.40;35.35;35.31;35.10;34.02;28.45;0.66
58856;SPS30;44629;50.962;6.138;2023-01-30T22:53:53;6.95;6.79;5.97;4.69;37.62;37.58;37.34;36.14;30.14;0.68
58856;SPS30;44629;50.962;6.138;2023-01-30T22:56:26;7.76;7.56;6.56;5.04;40.49;40.43;40.14;38.69;32.08;0.69
58856;SPS30;44629;50.962;6.138;2023-01-30T22:58:55;6.42;6.30;5.70;4.70;37.64;37.60;37.42;36.51;30.83;0.63
58856;SPS30;44629;50.962;6.138;2023-01-30T23:01:26;6.05;5.95;5.42;4.50;36.08;36.05;35.89;35.08;29.68;0.63
58856;SPS30;44629;50.962;6.138;2023-01-30T23:06:22;6.73;6.55;5.68;4.35;34.93;34.89;34.63;33.37;27.64;0.69
58856;SPS30;44629;50.962;6.138;2023-01-30T23:08:49;6.33;6.17;5.37;4.14;33.26;33.22;32.99;31.82;26.41;0.68
58856;SPS30;44629;50.962;6.138;2023-01-30T23:11:18;6.73;6.54;5.62;4.23;33.99;33.94;33.67;32.33;26.65;0.69
58856;SPS30;44629;50.962;6.138;2023-01-30T23:13:47;6.06;5.88;4.95;3.60;28.98;28.94;28.67;27.35;22.32;0.70
58856;SPS30;44629;50.962;6.138;2023-01-30T23:16:15;6.51;6.31;5.32;3.87;31.12;31.07;30.79;29.37;23.96;0.72
58856;SPS30;44629;50.962;6.138;2023-01-30T23:18:46;6.37;6.16;5.13;3.66;29.44;29.39;29.10;27.64;22.41;0.73
58856;SPS30;44629;50.962;6.138;2023-01-30T23:24:04;6.24;6.06;5.19;3.89;31.27;31.23;30.98;29.72;24.47;0.72
58856;SPS30;44629;50.962;6.138;2023-01-30T23:26:37;5.48;5.34;4.66;3.61;29.02;28.99;28.79;27.80;23.11;0.68
58856;SPS30;44629;50.962;6.138;2023-01-30T23:29:06;6.61;6.42;5.46;4.04;32.49;32.44;32.16;30.79;25.26;0.71
58856;SPS30;44629;50.962;6.138;2023-01-30T23:31:37;6.19;6.02;5.19;3.93;31.60;31.56;31.31;30.11;24.86;0.70
58856;SPS30;44629;50.962;6.138;2023-01-30T23:34:05;6.00;5.84;5.05;3.85;30.92;30.88;30.65;29.50;24.40;0.69
58856;SPS30;44629;50.962;6.138;2023-01-30T23:36:35;5.92;5.76;4.98;3.79;30.43;30.39;30.16;29.02;23.99;0.70